Time;durP1;ratioP1;P1;durP2;ratioP2;P2;SDS_P1;SDS_P2;PMS_P1;PMS_P2;Temp;Humidity;BMP_temperature;BMP_pressure;BME280_temperature;BME280_humidity;BME280_pressure;Samples;Min_cycle;Max_cycle;Signal;HPM_P1;HPM_P2
2021/12/21 00:00:22;;;;;;;5.40;2.45;;;7.10;96.60;;;;;;5007740;28;20424;-50
2021/12/21 00:02:50;;;;;;;3.55;1.70;;;7.10;96.60;;;;;;5005330;28;20200;-50
2021/12/21 00:05:20;;;;;;;7.18;1.83;;;7.10;96.70;;;;;;5003547;28;20040;-50
2021/12/21 00:07:51;;;;;;;4.70;2.10;;;7.10;96.50;;;;;;5007047;28;20030;-50
2021/12/21 00:10:19;;;;;;;11.95;2.20;;;7.10;96.70;;;;;;5003484;28;20476;-50
2021/12/21 00:17:59;;;;;;;5.20;2.10;;;7.10;96.50;;;;;;5006074;28;20104;-50
2021/12/21 00:20:44;;;;;;;5.82;2.17;;;7.10;96.60;;;;;;5003889;28;20043;-50
2021/12/21 00:24:12;;;;;;;6.72;1.88;;;7.10;96.70;;;;;;5003728;28;20342;-50
2021/12/21 00:26:11;;;;;;;6.57;2.22;;;7.00;96.70;;;;;;5003396;28;20034;-51
2021/12/21 00:31:24;;;;;;;8.23;2.15;;;7.00;96.60;;;;;;5004039;28;20076;-50
2021/12/21 00:33:50;;;;;;;4.32;1.67;;;7.10;96.70;;;;;;5002836;28;20077;-50
2021/12/21 00:36:18;;;;;;;3.97;2.50;;;7.10;96.60;;;;;;5003495;28;20061;-50
2021/12/21 00:38:45;;;;;;;6.53;1.92;;;7.00;96.50;;;;;;5004462;28;20030;-50
2021/12/21 00:41:12;;;;;;;6.85;2.33;;;7.00;96.70;;;;;;5006192;28;20110;-50
2021/12/21 00:43:37;;;;;;;8.30;2.38;;;7.00;96.70;;;;;;5003471;28;20022;-50
2021/12/21 00:46:03;;;;;;;5.88;2.30;;;7.10;96.70;;;;;;5002425;28;20022;-50
2021/12/21 00:48:31;;;;;;;8.95;1.95;;;7.10;96.60;;;;;;5003433;28;20034;-50
2021/12/21 00:50:59;;;;;;;10.15;2.83;;;7.00;96.60;;;;;;5003887;28;20054;-50
2021/12/21 00:53:26;;;;;;;8.15;2.15;;;7.10;96.70;;;;;;5000818;28;20042;-50
2021/12/21 00:55:52;;;;;;;6.97;2.45;;;7.00;96.50;;;;;;5002953;28;20072;-50
2021/12/21 00:58:18;;;;;;;6.47;2.35;;;7.00;96.60;;;;;;5003414;28;20468;-49
2021/12/21 01:00:44;;;;;;;4.68;1.80;;;7.00;96.70;;;;;;5005538;28;20030;-51
2021/12/21 01:03:12;;;;;;;6.70;1.90;;;7.00;96.60;;;;;;5001567;28;20453;-50
2021/12/21 01:08:16;;;;;;;3.70;1.98;;;7.00;96.60;;;;;;5001942;28;20113;-50
2021/12/21 01:13:35;;;;;;;3.80;1.70;;;7.00;96.70;;;;;;5002819;28;20016;-50
2021/12/21 01:16:39;;;;;;;7.90;1.88;;;7.00;96.60;;;;;;5004128;28;20025;-50
2021/12/21 01:19:03;;;;;;;1.95;1.63;;;7.00;96.70;;;;;;4999529;28;20365;-50
2021/12/21 01:21:34;;;;;;;6.80;2.40;;;7.00;97.00;;;;;;5001180;28;20034;-50
2021/12/21 01:26:47;;;;;;;5.68;2.65;;;7.00;96.60;;;;;;5001244;28;20045;-50
2021/12/21 01:37:00;;;;;;;4.38;2.38;;;7.00;96.70;;;;;;5000801;28;20483;-50
2021/12/21 01:43:06;;;;;;;4.28;2.10;;;7.00;96.70;;;;;;4998997;28;20034;-50
2021/12/21 01:50:26;;;;;;;7.80;2.53;;;7.00;96.70;;;;;;5001276;28;20033;-50
2021/12/21 01:52:52;;;;;;;5.93;1.88;;;7.00;96.80;;;;;;5002393;28;20034;-50
2021/12/21 01:55:18;;;;;;;9.32;2.42;;;7.00;96.80;;;;;;5002880;28;20437;-50
2021/12/21 01:57:44;;;;;;;8.50;2.28;;;7.00;96.70;;;;;;4997600;28;20062;-50
2021/12/21 02:00:11;;;;;;;5.80;2.75;;;7.00;96.60;;;;;;5001886;28;20019;-50
2021/12/21 02:02:36;;;;;;;8.73;2.83;;;7.00;96.60;;;;;;5000429;28;20041;-49
2021/12/21 02:05:03;;;;;;;6.95;2.42;;;7.00;96.70;;;;;;5003385;28;20345;-49
2021/12/21 02:07:29;;;;;;;4.43;2.20;;;7.00;96.60;;;;;;5001839;28;20022;-50
2021/12/21 02:09:54;;;;;;;8.43;2.17;;;7.00;96.70;;;;;;5000498;28;20037;-49
2021/12/21 02:12:21;;;;;;;4.63;2.05;;;7.00;96.80;;;;;;4999129;28;20056;-50
2021/12/21 02:14:55;;;;;;;2.50;1.88;;;6.90;96.50;;;;;;4999479;28;20018;-50
2021/12/21 02:20:40;;;;;;;4.65;2.28;;;6.90;96.70;;;;;;5001502;28;20026;-50
2021/12/21 02:23:20;;;;;;;7.00;2.60;;;7.00;96.80;;;;;;5002109;28;20409;-49
2021/12/21 02:30:57;;;;;;;2.88;1.92;;;6.90;96.70;;;;;;5001879;28;20022;-49
2021/12/21 02:33:25;;;;;;;6.85;2.03;;;6.90;96.80;;;;;;4999222;28;20085;-49
2021/12/21 02:35:51;;;;;;;4.68;1.90;;;6.90;96.80;;;;;;5002934;28;20017;-50
2021/12/21 02:38:17;;;;;;;5.05;2.83;;;6.90;96.80;;;;;;5000835;28;20058;-50
2021/12/21 02:40:44;;;;;;;7.50;2.35;;;6.90;96.70;;;;;;5001120;28;20066;-50
2021/12/21 02:43:10;;;;;;;8.40;2.58;;;6.90;97.10;;;;;;5001281;28;20037;-50
2021/12/21 02:45:37;;;;;;;6.45;2.42;;;6.90;96.80;;;;;;5000319;28;20116;-50
2021/12/21 02:48:03;;;;;;;3.72;1.88;;;6.90;96.80;;;;;;5000605;28;20030;-50
2021/12/21 02:50:29;;;;;;;5.40;2.00;;;6.90;96.70;;;;;;4999845;28;20053;-50
2021/12/21 02:52:54;;;;;;;8.43;2.08;;;7.00;96.80;;;;;;4998753;28;20129;-50
2021/12/21 02:55:21;;;;;;;3.00;1.75;;;6.90;96.70;;;;;;5002006;28;20022;-50
2021/12/21 02:57:46;;;;;;;6.35;2.20;;;6.90;96.90;;;;;;5000148;28;20362;-50
2021/12/21 03:00:13;;;;;;;8.00;2.42;;;6.90;96.90;;;;;;5000648;28;20022;-50
2021/12/21 03:02:38;;;;;;;7.38;2.45;;;6.90;96.80;;;;;;4998707;28;20030;-50
2021/12/21 03:05:05;;;;;;;6.47;2.40;;;6.90;97.30;;;;;;5003420;28;20400;-50
2021/12/21 03:08:09;;;;;;;14.52;2.50;;;6.90;96.80;;;;;;5000857;28;20073;-50
2021/12/21 03:10:35;;;;;;;5.20;2.25;;;6.90;96.70;;;;;;5000252;28;20031;-50
2021/12/21 03:15:45;;;;;;;7.68;2.13;;;6.90;96.90;;;;;;5002731;28;20044;-50
2021/12/21 03:18:10;;;;;;;4.07;2.53;;;6.90;96.90;;;;;;4999685;28;20450;-50
2021/12/21 03:20:36;;;;;;;5.68;2.25;;;6.90;96.90;;;;;;5001007;28;20022;-50
2021/12/21 03:23:02;;;;;;;3.72;2.10;;;6.90;96.90;;;;;;5001432;28;20376;-50
2021/12/21 03:25:27;;;;;;;5.82;2.25;;;6.90;96.90;;;;;;5000899;28;20018;-50
2021/12/21 03:27:53;;;;;;;8.68;2.47;;;6.90;96.80;;;;;;5001239;28;20037;-50
2021/12/21 03:30:19;;;;;;;3.47;2.17;;;6.90;96.90;;;;;;5005644;28;20538;-50
2021/12/21 03:32:44;;;;;;;7.60;2.58;;;6.90;96.90;;;;;;5003237;28;20137;-50
2021/12/21 03:35:10;;;;;;;5.72;2.08;;;6.90;97.00;;;;;;5006386;28;20022;-50
2021/12/21 03:37:37;;;;;;;2.85;2.00;;;6.90;96.90;;;;;;5006871;28;20065;-51
2021/12/21 03:40:04;;;;;;;11.85;2.90;;;6.90;97.00;;;;;;5003844;28;20453;-49
2021/12/21 03:42:30;;;;;;;5.57;2.67;;;6.90;96.90;;;;;;5003201;28;20445;-50
2021/12/21 03:44:56;;;;;;;4.90;2.40;;;6.90;96.90;;;;;;4998210;28;20030;-50
2021/12/21 03:47:25;;;;;;;6.00;2.40;;;6.90;96.90;;;;;;5001219;28;20427;-50
2021/12/21 03:49:54;;;;;;;5.10;2.77;;;6.90;96.90;;;;;;5005589;28;20084;-50
2021/12/21 03:52:22;;;;;;;4.43;2.45;;;6.90;97.00;;;;;;5003129;28;20446;-50
2021/12/21 03:54:54;;;;;;;6.75;2.47;;;6.90;96.90;;;;;;5003759;28;20106;-50
2021/12/21 03:57:20;;;;;;;5.00;2.33;;;6.90;96.80;;;;;;5002138;28;20053;-50
2021/12/21 03:59:48;;;;;;;5.55;3.15;;;6.80;96.80;;;;;;5002843;28;20505;-50
2021/12/21 04:02:14;;;;;;;9.80;2.67;;;6.80;96.80;;;;;;5002107;28;20372;-50
2021/12/21 04:04:41;;;;;;;9.98;2.70;;;6.80;97.00;;;;;;5004537;28;20496;-50
2021/12/21 04:07:07;;;;;;;5.47;2.85;;;6.80;96.70;;;;;;5006592;28;20120;-50
2021/12/21 04:09:33;;;;;;;6.03;2.25;;;6.80;96.90;;;;;;5002904;28;20114;-50
2021/12/21 04:12:00;;;;;;;3.67;2.38;;;6.80;97.10;;;;;;5003357;28;20342;-50
2021/12/21 04:14:30;;;;;;;4.05;2.40;;;6.80;96.80;;;;;;5002683;28;20547;-50
2021/12/21 04:16:57;;;;;;;14.00;2.67;;;6.90;96.80;;;;;;5003746;28;20060;-50
2021/12/21 04:19:23;;;;;;;5.68;2.08;;;6.90;96.90;;;;;;5005824;28;20418;-50
2021/12/21 04:21:49;;;;;;;5.05;2.55;;;6.90;96.90;;;;;;5000675;28;20093;-50
2021/12/21 04:24:14;;;;;;;4.80;2.67;;;6.90;96.80;;;;;;5003359;28;20358;-50
2021/12/21 04:26:40;;;;;;;6.93;2.88;;;6.90;96.80;;;;;;5004704;28;20102;-50
2021/12/21 04:29:06;;;;;;;8.60;2.97;;;6.80;96.80;;;;;;5002185;28;20073;-50
2021/12/21 04:31:31;;;;;;;11.15;2.90;;;6.90;96.80;;;;;;5003273;28;20033;-50
2021/12/21 04:33:58;;;;;;;10.00;2.92;;;6.90;96.70;;;;;;5002493;28;20034;-50
2021/12/21 04:36:24;;;;;;;5.57;2.60;;;6.90;96.70;;;;;;5003496;28;20025;-50
2021/12/21 04:38:51;;;;;;;3.22;2.33;;;6.90;96.80;;;;;;5004552;28;20033;-50
2021/12/21 04:41:23;;;;;;;6.90;2.70;;;6.90;96.60;;;;;;5005204;28;20034;-50
2021/12/21 04:43:50;;;;;;;10.75;2.85;;;6.80;96.60;;;;;;5001740;28;20104;-50
2021/12/21 04:46:16;;;;;;;5.45;2.60;;;6.80;96.60;;;;;;5004683;28;20026;-50
2021/12/21 04:48:42;;;;;;;5.95;2.50;;;6.80;96.60;;;;;;5003522;28;20501;-50
2021/12/21 04:51:08;;;;;;;5.55;2.50;;;6.80;96.60;;;;;;5005004;28;20061;-50
2021/12/21 04:53:33;;;;;;;4.13;2.60;;;6.80;96.60;;;;;;5003847;28;20033;-50
2021/12/21 04:55:59;;;;;;;8.18;2.60;;;6.80;96.60;;;;;;5003477;28;20032;-50
2021/12/21 04:58:25;;;;;;;5.13;2.50;;;6.80;96.60;;;;;;5001838;28;20034;-50
2021/12/21 05:00:51;;;;;;;2.90;2.45;;;6.80;96.60;;;;;;5005434;28;20457;-50
2021/12/21 05:03:18;;;;;;;6.93;2.53;;;6.80;96.50;;;;;;5001937;28;20026;-50
2021/12/21 05:05:43;;;;;;;3.38;2.35;;;6.80;96.50;;;;;;5004560;28;20037;-50
2021/12/21 05:08:12;;;;;;;6.25;3.10;;;6.80;96.40;;;;;;5000412;28;20023;-50
2021/12/21 05:10:50;;;;;;;3.53;2.47;;;6.80;96.50;;;;;;5001911;28;20433;-49
2021/12/21 05:13:17;;;;;;;12.13;3.67;;;6.80;96.50;;;;;;5003936;28;20055;-50
2021/12/21 05:15:43;;;;;;;3.55;2.50;;;6.80;96.50;;;;;;5001594;28;20077;-50
2021/12/21 05:18:13;;;;;;;9.82;3.50;;;6.80;96.50;;;;;;5003645;28;20030;-49
2021/12/21 05:20:39;;;;;;;4.13;2.72;;;6.80;96.50;;;;;;5004034;28;20026;-50
2021/12/21 05:23:06;;;;;;;5.68;3.30;;;6.80;96.40;;;;;;5004494;28;20100;-50
2021/12/21 05:25:34;;;;;;;10.90;3.17;;;6.80;96.40;;;;;;5002437;28;20023;-50
2021/12/21 05:28:00;;;;;;;11.18;2.78;;;6.80;96.40;;;;;;5003945;28;20040;-50
2021/12/21 05:30:27;;;;;;;7.47;3.28;;;6.80;96.40;;;;;;5002662;28;20318;-50
2021/12/21 05:32:53;;;;;;;7.18;2.95;;;6.80;96.40;;;;;;5002373;28;20453;-50
2021/12/21 05:35:20;;;;;;;5.47;2.35;;;6.80;96.40;;;;;;5001752;28;20429;-50
2021/12/21 05:37:47;;;;;;;5.88;3.03;;;6.80;96.30;;;;;;5002169;28;20396;-49
2021/12/21 05:40:17;;;;;;;9.63;3.30;;;6.80;96.40;;;;;;5003876;28;20060;-50
2021/12/21 05:42:46;;;;;;;5.63;2.83;;;6.80;96.40;;;;;;5001775;28;20065;-50
2021/12/21 05:45:15;;;;;;;6.85;2.78;;;6.80;96.40;;;;;;5004218;28;20031;-50
2021/12/21 05:47:41;;;;;;;6.88;2.50;;;6.80;96.40;;;;;;5002222;28;20424;-50
2021/12/21 05:50:11;;;;;;;8.18;3.05;;;6.80;96.40;;;;;;5003148;28;20026;-50
2021/12/21 05:52:37;;;;;;;7.17;3.63;;;6.70;96.40;;;;;;5000478;28;20377;-50
2021/12/21 05:55:04;;;;;;;4.53;3.22;;;6.80;96.30;;;;;;5000583;28;20033;-50
2021/12/21 05:57:30;;;;;;;6.88;3.42;;;6.70;96.40;;;;;;5001120;28;20030;-49
2021/12/21 05:59:55;;;;;;;5.63;2.60;;;6.70;96.30;;;;;;5002512;28;20371;-50
2021/12/21 06:02:21;;;;;;;10.07;3.55;;;6.80;96.30;;;;;;5000783;28;20038;-50
2021/12/21 06:04:47;;;;;;;13.73;3.40;;;6.70;96.20;;;;;;5004001;28;20026;-49
2021/12/21 06:07:13;;;;;;;8.18;3.45;;;6.70;96.30;;;;;;5005383;28;20026;-50
2021/12/21 06:09:39;;;;;;;11.02;2.90;;;6.70;96.30;;;;;;5001280;28;20460;-51
2021/12/21 06:22:51;;;;;;;8.50;2.88;;;6.70;96.30;;;;;;5001439;28;20372;-50
2021/12/21 06:27:43;;;;;;;3.65;2.38;;;6.70;96.30;;;;;;5005134;28;20120;-50
2021/12/21 06:30:09;;;;;;;7.50;3.42;;;6.70;96.60;;;;;;5005885;28;20080;-50
2021/12/21 06:32:35;;;;;;;5.00;2.75;;;6.70;96.30;;;;;;4999968;28;20034;-50
2021/12/21 06:35:01;;;;;;;9.13;3.25;;;6.70;96.30;;;;;;5001125;28;20100;-50
2021/12/21 06:37:26;;;;;;;7.25;3.30;;;6.70;96.30;;;;;;4997917;28;20036;-50
2021/12/21 06:39:52;;;;;;;5.97;3.55;;;6.70;96.30;;;;;;4998084;28;20022;-50
2021/12/21 06:42:18;;;;;;;7.45;3.75;;;6.70;96.20;;;;;;5001421;28;20030;-50
2021/12/21 06:44:47;;;;;;;6.72;3.38;;;6.70;96.30;;;;;;5000205;28;20030;-50
2021/12/21 06:52:43;;;;;;;8.73;3.60;;;6.70;96.20;;;;;;5000779;28;20103;-50
2021/12/21 06:55:09;;;;;;;5.20;3.00;;;6.70;96.30;;;;;;5000644;28;20022;-50
2021/12/21 06:57:37;;;;;;;7.35;2.90;;;6.70;96.20;;;;;;5003542;28;20108;-50
2021/12/21 07:00:03;;;;;;;6.60;3.92;;;6.70;96.30;;;;;;5003376;28;20037;-50
2021/12/21 07:02:29;;;;;;;7.35;2.97;;;6.70;96.20;;;;;;5007151;28;20041;-50
2021/12/21 07:04:55;;;;;;;5.55;2.33;;;6.70;96.20;;;;;;4999982;28;20018;-50
2021/12/21 07:07:21;;;;;;;13.30;3.30;;;6.70;96.20;;;;;;4999866;28;20401;-49
2021/12/21 07:09:57;;;;;;;4.45;2.67;;;6.70;96.20;;;;;;4999669;28;20036;-50
2021/12/21 07:18:01;;;;;;;5.70;2.88;;;6.70;96.10;;;;;;4999319;28;20034;-50
2021/12/21 07:20:36;;;;;;;9.38;3.42;;;6.70;96.20;;;;;;5003636;28;20041;-50
2021/12/21 07:23:03;;;;;;;6.78;3.28;;;6.70;96.20;;;;;;5001075;28;20109;-50
2021/12/21 07:25:29;;;;;;;5.53;2.85;;;6.70;96.10;;;;;;5002021;28;20030;-50
2021/12/21 07:27:55;;;;;;;6.20;3.03;;;6.70;96.10;;;;;;4999714;28;20097;-50
2021/12/21 07:30:21;;;;;;;12.60;3.80;;;6.70;96.10;;;;;;4999570;28;20030;-50
2021/12/21 07:32:47;;;;;;;9.60;3.40;;;6.70;96.10;;;;;;4998796;28;20034;-50
2021/12/21 07:35:13;;;;;;;5.97;3.92;;;6.70;96.20;;;;;;5001524;28;20022;-50
2021/12/21 07:37:39;;;;;;;8.60;3.50;;;6.70;96.10;;;;;;5001679;28;20038;-50
2021/12/21 07:40:06;;;;;;;4.97;3.35;;;6.70;96.20;;;;;;5003012;28;20033;-50
2021/12/21 07:42:31;;;;;;;5.20;3.13;;;6.70;96.10;;;;;;4999381;28;20041;-50
2021/12/21 07:44:57;;;;;;;10.55;3.50;;;6.70;96.00;;;;;;4999756;28;20034;-50
2021/12/21 07:47:23;;;;;;;10.40;3.33;;;6.70;96.10;;;;;;5001384;28;20242;-50
2021/12/21 07:49:49;;;;;;;3.53;3.00;;;6.70;96.10;;;;;;5006196;28;20335;-50
2021/12/21 07:52:16;;;;;;;10.57;3.88;;;6.70;96.00;;;;;;5006411;28;20038;-50
2021/12/21 07:54:41;;;;;;;9.93;3.35;;;6.70;96.10;;;;;;5002334;28;20072;-50
2021/12/21 07:57:07;;;;;;;14.85;4.03;;;6.70;96.00;;;;;;5001235;28;20105;-50
2021/12/21 07:59:34;;;;;;;9.18;3.53;;;6.70;96.10;;;;;;5001083;28;20026;-50
2021/12/21 08:02:00;;;;;;;7.13;3.67;;;6.70;96.10;;;;;;4996951;28;20030;-50
2021/12/21 08:04:28;;;;;;;5.85;3.53;;;6.70;96.10;;;;;;5000764;28;20026;-50
2021/12/21 08:06:56;;;;;;;10.45;4.03;;;6.70;96.10;;;;;;4999043;28;20026;-50
2021/12/21 08:09:25;;;;;;;9.93;3.60;;;6.70;96.10;;;;;;4999587;28;20030;-50
2021/12/21 08:14:35;;;;;;;11.05;3.63;;;6.70;96.50;;;;;;5011969;28;20091;-50
2021/12/21 08:17:01;;;;;;;12.25;3.63;;;6.70;96.00;;;;;;5009384;28;20116;-50
2021/12/21 08:19:26;;;;;;;11.38;4.15;;;6.70;96.00;;;;;;5009255;28;20021;-50
2021/12/21 08:21:52;;;;;;;9.25;3.70;;;6.70;96.00;;;;;;5008979;28;20055;-50
2021/12/21 08:24:18;;;;;;;10.57;4.18;;;6.70;96.00;;;;;;5003850;28;20030;-50
2021/12/21 08:26:43;;;;;;;6.85;4.07;;;6.70;95.90;;;;;;5005402;28;20018;-50
2021/12/21 08:29:09;;;;;;;10.70;3.72;;;6.60;95.60;;;;;;5007244;28;20497;-50
2021/12/21 08:31:35;;;;;;;10.10;4.03;;;6.60;95.70;;;;;;5001816;28;20125;-50
2021/12/21 08:34:00;;;;;;;8.48;4.53;;;6.60;95.90;;;;;;5002831;28;20445;-50
2021/12/21 08:36:28;;;;;;;7.72;3.90;;;6.60;95.90;;;;;;5002965;28;20048;-50
2021/12/21 08:38:54;;;;;;;11.60;4.55;;;6.60;95.80;;;;;;5003732;28;20034;-50
2021/12/21 08:41:21;;;;;;;5.82;3.67;;;6.60;95.90;;;;;;5006057;28;20041;-50
2021/12/21 08:43:47;;;;;;;9.77;3.38;;;6.60;95.90;;;;;;5002302;28;20034;-50
2021/12/21 08:46:12;;;;;;;7.18;3.78;;;6.60;95.90;;;;;;5004139;28;20022;-50
2021/12/21 08:48:38;;;;;;;11.68;4.18;;;6.60;96.00;;;;;;5007117;28;20034;-50
2021/12/21 08:51:04;;;;;;;8.32;3.60;;;6.60;96.00;;;;;;5006244;28;20113;-51
2021/12/21 08:53:31;;;;;;;6.57;3.13;;;6.70;96.10;;;;;;5005811;28;20038;-50
2021/12/21 08:55:56;;;;;;;8.02;3.45;;;6.70;96.10;;;;;;5005088;28;20076;-50
2021/12/21 08:58:22;;;;;;;6.97;3.72;;;6.70;96.20;;;;;;5007830;28;20030;-50
2021/12/21 09:00:49;;;;;;;6.13;3.60;;;6.70;96.20;;;;;;5007157;28;20047;-50
2021/12/21 09:03:15;;;;;;;6.03;3.05;;;6.70;96.20;;;;;;5001238;28;20061;-50
2021/12/21 09:05:40;;;;;;;12.18;4.18;;;6.70;96.20;;;;;;5003665;28;20314;-50
2021/12/21 09:08:08;;;;;;;5.70;3.10;;;6.70;96.10;;;;;;5009619;28;20037;-50
2021/12/21 09:10:34;;;;;;;6.38;3.33;;;6.70;96.20;;;;;;5005484;28;20145;-50
2021/12/21 09:13:00;;;;;;;8.25;3.88;;;6.80;96.30;;;;;;5002338;28;20642;-50
2021/12/21 09:15:28;;;;;;;6.95;4.28;;;6.80;96.20;;;;;;5004256;28;20052;-49
2021/12/21 09:17:54;;;;;;;8.30;3.55;;;6.80;96.10;;;;;;5002034;28;20097;-50
2021/12/21 09:20:22;;;;;;;8.98;4.15;;;6.80;96.10;;;;;;5005488;28;20419;-49
2021/12/21 09:22:49;;;;;;;6.20;3.35;;;6.80;96.10;;;;;;5002762;28;20045;-50
2021/12/21 09:25:16;;;;;;;6.20;3.05;;;6.80;96.00;;;;;;5002956;28;20030;-50
2021/12/21 09:27:42;;;;;;;5.28;3.75;;;6.80;96.00;;;;;;5001309;28;20050;-50
2021/12/21 09:30:11;;;;;;;10.00;4.30;;;6.80;96.00;;;;;;5001463;28;20023;-50
2021/12/21 09:32:37;;;;;;;8.27;5.22;;;6.90;96.10;;;;;;5000691;28;20095;-50
2021/12/21 09:35:03;;;;;;;5.90;3.40;;;6.90;95.80;;;;;;5001531;28;20030;-50
2021/12/21 09:37:29;;;;;;;12.85;4.20;;;6.90;96.00;;;;;;5002565;28;20032;-50
2021/12/21 09:39:56;;;;;;;7.97;3.50;;;6.90;95.90;;;;;;5004021;28;20041;-50
2021/12/21 09:42:27;;;;;;;9.60;4.38;;;6.90;96.40;;;;;;5002663;28;20108;-50
2021/12/21 09:44:55;;;;;;;5.05;3.70;;;7.00;96.10;;;;;;5003727;28;20056;-50
2021/12/21 09:47:21;;;;;;;9.70;4.80;;;7.00;96.00;;;;;;5001342;28;20105;-50
2021/12/21 09:49:47;;;;;;;6.60;4.50;;;7.00;96.00;;;;;;5001678;28;20457;-49
2021/12/21 09:52:18;;;;;;;8.05;4.80;;;7.00;96.10;;;;;;4999179;28;20035;-50
2021/12/21 09:54:44;;;;;;;;;;;7.00;96.00;;;;;;5003175;28;20091;-50
2021/12/21 09:57:09;;;;;;;7.18;3.92;;;7.00;96.10;;;;;;5003741;28;20004;-49
2021/12/21 09:59:35;;;;;;;9.38;3.60;;;7.00;96.10;;;;;;4999662;28;20082;-49
2021/12/21 10:02:02;;;;;;;7.22;3.75;;;7.00;96.10;;;;;;5001502;28;20046;-50
2021/12/21 10:04:29;;;;;;;7.38;4.38;;;7.00;96.10;;;;;;5000906;28;20026;-50
2021/12/21 10:06:56;;;;;;;12.80;4.57;;;7.00;96.10;;;;;;5002828;28;20029;-50
2021/12/21 10:09:31;;;;;;;8.85;4.07;;;7.00;96.10;;;;;;5002797;28;20029;-50
2021/12/21 10:11:56;;;;;;;8.90;3.50;;;7.00;96.10;;;;;;5002172;28;20048;-50
2021/12/21 10:14:25;;;;;;;11.65;4.47;;;7.10;96.20;;;;;;4999603;28;20022;-50
2021/12/21 10:17:10;;;;;;;7.88;4.22;;;7.10;96.20;;;;;;4999177;28;20027;-49
2021/12/21 10:19:37;;;;;;;6.70;4.15;;;7.10;96.10;;;;;;5000761;28;20026;-50
2021/12/21 10:22:15;;;;;;;8.40;4.45;;;7.10;96.10;;;;;;5001133;28;20026;-49
2021/12/21 10:24:49;;;;;;;7.43;4.60;;;7.10;96.10;;;;;;5003933;28;20033;-49
2021/12/21 10:27:18;;;;;;;10.32;5.40;;;7.00;96.00;;;;;;5000445;28;20026;-49
2021/12/21 10:29:50;;;;;;;8.38;4.53;;;7.10;95.80;;;;;;5001509;28;20037;-49
2021/12/21 10:32:20;;;;;;;10.27;4.43;;;7.10;95.70;;;;;;5001728;28;20042;-50
2021/12/21 10:34:50;;;;;;;;;;;7.10;95.60;;;;;;4998579;28;20034;-49
2021/12/21 10:37:30;;;;;;;6.88;4.18;;;7.00;95.70;;;;;;5002944;28;20240;-49
2021/12/21 10:40:13;;;;;;;;;;;7.10;95.60;;;;;;5002617;28;20022;-49
2021/12/21 10:42:46;;;;;;;8.57;4.10;;;7.00;95.60;;;;;;5002361;28;20251;-49
2021/12/21 10:45:12;;;;;;;4.93;3.33;;;7.00;95.60;;;;;;5002346;28;20030;-49
2021/12/21 10:47:38;;;;;;;7.80;4.53;;;7.10;95.70;;;;;;4999010;28;20405;-49
2021/12/21 10:50:05;;;;;;;6.05;4.18;;;7.10;95.60;;;;;;5001824;28;20364;-49
2021/12/21 10:52:31;;;;;;;9.50;4.43;;;7.10;95.60;;;;;;5000976;28;20033;-49
2021/12/21 10:54:57;;;;;;;8.32;4.65;;;7.10;95.70;;;;;;4997157;28;20030;-49
2021/12/21 10:57:32;;;;;;;9.85;4.63;;;7.10;95.70;;;;;;5001274;28;20118;-49
2021/12/21 11:00:00;;;;;;;8.98;4.85;;;7.10;95.70;;;;;;5000315;28;20036;-49
2021/12/21 11:02:32;;;;;;;12.60;5.15;;;7.10;95.70;;;;;;5003545;28;20119;-49
2021/12/21 11:05:11;;;;;;;12.38;5.00;;;7.10;95.80;;;;;;4999892;28;20074;-49
2021/12/21 11:07:50;;;;;;;8.48;4.05;;;7.10;95.80;;;;;;5000275;28;20031;-50
2021/12/21 11:10:24;;;;;;;9.63;4.80;;;7.10;95.80;;;;;;4999912;28;20117;-49
2021/12/21 11:12:53;;;;;;;10.25;4.78;;;7.10;95.70;;;;;;5004108;28;20042;-49
2021/12/21 11:15:28;;;;;;;9.93;5.45;;;7.10;95.80;;;;;;5001816;28;20476;-49
2021/12/21 11:17:55;;;;;;;9.68;4.07;;;7.10;95.90;;;;;;4998503;28;20053;-49
2021/12/21 11:20:20;;;;;;;6.78;4.38;;;7.10;95.90;;;;;;5002163;28;20022;-49
2021/12/21 11:22:46;;;;;;;7.47;4.95;;;7.10;95.90;;;;;;5003727;28;20022;-49
2021/12/21 11:25:13;;;;;;;11.98;5.03;;;7.10;95.90;;;;;;5000008;28;20022;-49
2021/12/21 11:27:42;;;;;;;11.43;4.95;;;7.10;95.90;;;;;;5002280;28;20026;-50
2021/12/21 11:30:12;;;;;;;7.20;4.57;;;7.10;95.90;;;;;;5001260;28;20058;-49
2021/12/21 11:32:44;;;;;;;10.23;4.72;;;7.10;95.90;;;;;;4999433;28;20413;-49
2021/12/21 11:37:45;;;;;;;8.05;3.85;;;7.10;96.00;;;;;;4999624;28;20057;-49
2021/12/21 11:40:19;;;;;;;8.00;4.07;;;7.10;95.90;;;;;;5000004;28;20019;-49
2021/12/21 11:42:51;;;;;;;7.35;4.53;;;7.10;96.00;;;;;;4999230;28;20481;-49
2021/12/21 11:45:39;;;;;;;13.43;4.68;;;7.10;95.90;;;;;;5004919;28;20034;-49
2021/12/21 11:48:18;;;;;;;9.52;4.95;;;7.10;95.90;;;;;;5005443;28;20121;-50
2021/12/21 11:50:46;;;;;;;6.38;3.80;;;7.10;96.00;;;;;;5002929;28;20031;-49
2021/12/21 11:53:14;;;;;;;10.73;5.25;;;7.10;96.00;;;;;;5003880;28;20368;-49
2021/12/21 11:55:44;;;;;;;9.88;5.85;;;7.10;96.00;;;;;;5005337;28;20022;-49
2021/12/21 11:58:21;;;;;;;9.27;4.22;;;7.10;96.00;;;;;;5004124;28;20113;-49
2021/12/21 12:00:57;;;;;;;5.13;3.63;;;7.20;96.00;;;;;;5002983;28;20573;-49
2021/12/21 12:03:26;;;;;;;10.93;3.92;;;7.10;96.00;;;;;;5001684;28;20033;-50
2021/12/21 12:05:59;;;;;;;13.65;5.45;;;7.10;96.00;;;;;;5001186;28;20045;-49
2021/12/21 12:08:28;;;;;;;7.88;4.07;;;7.10;96.00;;;;;;5003499;28;20042;-50
2021/12/21 12:10:58;;;;;;;11.45;4.80;;;7.10;96.00;;;;;;5004548;28;20026;-49
2021/12/21 12:13:32;;;;;;;11.82;3.97;;;7.20;96.10;;;;;;5003481;28;20435;-49
2021/12/21 12:16:04;;;;;;;7.15;3.60;;;7.20;96.10;;;;;;5011024;28;20033;-50
2021/12/21 12:18:41;;;;;;;9.23;3.15;;;7.20;96.10;;;;;;5009371;28;20030;-50
2021/12/21 12:21:17;;;;;;;7.28;4.10;;;7.20;96.00;;;;;;5011519;28;20034;-49
2021/12/21 12:23:56;;;;;;;8.23;4.45;;;7.20;96.00;;;;;;5010106;28;20352;-49
2021/12/21 12:26:28;;;;;;;8.18;2.97;;;7.20;96.00;;;;;;5011507;28;20033;-50
2021/12/21 12:29:15;;;;;;;10.45;4.30;;;7.20;96.00;;;;;;5011670;28;20476;-50
2021/12/21 12:31:42;;;;;;;7.78;3.85;;;7.20;95.90;;;;;;5011979;28;20013;-50
2021/12/21 12:34:08;;;;;;;16.00;4.55;;;7.30;95.90;;;;;;5009774;28;20042;-50
2021/12/21 12:36:50;;;;;;;10.85;4.25;;;7.30;95.80;;;;;;5011301;28;20469;-49
2021/12/21 12:39:42;;;;;;;12.70;5.10;;;7.20;95.90;;;;;;5012059;28;20034;-50
2021/12/21 12:42:16;;;;;;;7.75;4.95;;;7.20;95.90;;;;;;5008826;28;20100;-49
2021/12/21 12:44:43;;;;;;;14.05;5.45;;;7.20;95.90;;;;;;5007482;28;20077;-49
2021/12/21 12:47:12;;;;;;;15.77;6.28;;;7.20;95.90;;;;;;4999638;28;20062;-49
2021/12/21 12:49:48;;;;;;;11.40;5.07;;;7.20;95.90;;;;;;5002101;28;20085;-49
2021/12/21 12:52:17;;;;;;;11.75;5.18;;;7.20;96.00;;;;;;5001725;28;20065;-49
2021/12/21 12:54:49;;;;;;;15.30;5.40;;;7.20;96.00;;;;;;5001636;28;20058;-49
2021/12/21 12:57:55;;;;;;;14.95;5.90;;;7.20;95.90;;;;;;5002851;28;20018;-49
2021/12/21 13:00:26;;;;;;;9.13;5.63;;;7.20;96.00;;;;;;4987326;28;20043;-50
2021/12/21 13:03:14;;;;;;;10.70;5.78;;;7.20;96.00;;;;;;4987701;28;20046;-49
2021/12/21 13:05:53;;;;;;;13.38;6.15;;;7.10;95.90;;;;;;4990449;28;20030;-49
2021/12/21 13:08:22;;;;;;;14.75;6.90;;;7.10;95.90;;;;;;4990405;28;20063;-49
2021/12/21 13:10:51;;;;;;;11.50;5.35;;;7.10;95.70;;;;;;4989266;28;20035;-49
2021/12/21 13:13:18;;;;;;;17.17;5.65;;;7.20;95.70;;;;;;4989219;28;20143;-49
2021/12/21 13:15:47;;;;;;;14.55;6.18;;;7.20;95.70;;;;;;4990419;28;20031;-49
2021/12/21 13:18:18;;;;;;;15.55;7.65;;;7.10;95.60;;;;;;4989607;28;20484;-49
2021/12/21 13:20:47;;;;;;;14.30;5.57;;;7.10;95.70;;;;;;4989593;28;20477;-49
2021/12/21 13:23:18;;;;;;;17.85;8.02;;;7.20;95.70;;;;;;4989530;28;20072;-49
2021/12/21 13:26:03;;;;;;;14.52;5.82;;;7.20;95.60;;;;;;4990350;28;20088;-49
2021/12/21 13:28:35;;;;;;;14.00;6.32;;;7.20;95.70;;;;;;4989948;28;20388;-49
2021/12/21 13:31:05;;;;;;;9.93;5.45;;;7.20;96.00;;;;;;4988448;28;20034;-49
2021/12/21 13:33:32;;;;;;;12.45;5.43;;;7.20;95.70;;;;;;4988732;28;20121;-49
2021/12/21 13:36:04;;;;;;;9.98;5.22;;;7.20;95.70;;;;;;4998497;28;20461;-49
2021/12/21 13:38:30;;;;;;;15.77;6.88;;;7.20;95.60;;;;;;5001767;28;20030;-49
2021/12/21 13:41:01;;;;;;;15.07;6.18;;;7.20;95.70;;;;;;5004978;28;20030;-49
2021/12/21 13:43:27;;;;;;;13.85;5.30;;;7.20;95.70;;;;;;5000186;28;20152;-49
2021/12/21 13:46:05;;;;;;;9.23;5.38;;;7.20;95.70;;;;;;5002942;28;20463;-49
2021/12/21 13:48:33;;;;;;;11.82;4.45;;;7.20;95.60;;;;;;5001500;28;20054;-49
2021/12/21 13:51:15;;;;;;;10.13;4.90;;;7.20;95.70;;;;;;5001451;28;20026;-49
2021/12/21 13:53:43;;;;;;;18.90;6.15;;;7.20;95.70;;;;;;5009712;28;20038;-49
2021/12/21 13:56:15;;;;;;;9.10;5.43;;;7.20;95.70;;;;;;5001306;28;20361;-49
2021/12/21 13:58:41;;;;;;;9.57;4.85;;;7.20;95.70;;;;;;5001182;28;20026;-49
2021/12/21 14:01:15;;;;;;;13.73;5.35;;;7.20;95.80;;;;;;5003379;28;20522;-49
2021/12/21 14:03:46;;;;;;;13.20;6.10;;;7.20;95.80;;;;;;5005490;28;20033;-49
2021/12/21 14:06:14;;;;;;;10.20;5.00;;;7.20;95.80;;;;;;5001088;28;20027;-49
2021/12/21 14:08:44;;;;;;;11.32;5.43;;;7.20;95.80;;;;;;5000290;28;20030;-49
2021/12/21 14:11:11;;;;;;;10.10;4.93;;;7.20;95.80;;;;;;5000870;28;20085;-49
2021/12/21 14:13:42;;;;;;;11.52;5.28;;;7.20;95.80;;;;;;4999764;28;20042;-49
2021/12/21 14:16:14;;;;;;;11.18;4.60;;;7.20;95.80;;;;;;5000788;28;20346;-49